Time;durP1;ratioP1;P1;durP2;ratioP2;P2;SDS_P1;SDS_P2;PMS_P1;PMS_P2;Temp;Humidity;BMP_temperature;BMP_pressure;BME280_temperature;BME280_humidity;BME280_pressure;Samples;Min_cycle;Max_cycle;Signal;HPM_P1;HPM_P2
2023/05/21 00:01:38;;;;;;;12.77;7.67;;;;;;;15.81;93.70;101494.53;5052771;28;20478;-71
2023/05/21 00:04:06;;;;;;;15.80;6.47;;;;;;;15.81;94.27;101497.25;5052805;28;20442;-72
2023/05/21 00:06:34;;;;;;;14.77;7.40;;;;;;;15.83;95.10;101491.47;5052888;28;20446;-72
2023/05/21 00:09:02;;;;;;;17.70;8.27;;;;;;;15.81;95.63;101491.00;5052732;28;20466;-72
2023/05/21 00:11:29;;;;;;;14.30;7.20;;;;;;;15.81;96.17;101494.53;5052423;28;20931;-72
2023/05/21 00:13:57;;;;;;;13.90;6.67;;;;;;;15.84;96.51;101487.59;5052692;28;20527;-72
2023/05/21 00:16:23;;;;;;;11.40;6.67;;;;;;;15.81;96.53;101496.44;5052396;28;20541;-72
2023/05/21 00:18:53;;;;;;;13.80;7.20;;;;;;;15.82;96.73;101484.41;5052656;28;20443;-72
2023/05/21 00:21:21;;;;;;;14.63;7.60;;;;;;;15.83;96.99;101494.19;5052236;28;20572;-72
2023/05/21 00:23:48;;;;;;;16.03;7.63;;;;;;;15.82;96.91;101484.41;5052640;28;20855;-72
2023/05/21 00:26:15;;;;;;;13.73;6.97;;;;;;;15.80;97.12;101492.09;5052295;28;20444;-72
2023/05/21 00:28:41;;;;;;;12.63;7.17;;;;;;;15.78;97.29;101478.75;5052516;28;20477;-71
2023/05/21 00:31:09;;;;;;;12.90;6.57;;;;;;;15.82;97.49;101481.66;5052295;28;20445;-72
2023/05/21 00:33:36;;;;;;;13.83;7.03;;;;;;;15.77;97.67;101481.81;5052549;28;20442;-72
2023/05/21 00:36:02;;;;;;;16.43;7.10;;;;;;;15.80;97.15;101481.97;5052572;28;20484;-72
2023/05/21 00:38:31;;;;;;;16.80;7.63;;;;;;;15.78;97.75;101473.28;5052525;28;20887;-71
2023/05/21 00:41:00;;;;;;;17.20;6.77;;;;;;;15.79;97.28;101474.91;5053955;28;20469;-72
2023/05/21 00:43:26;;;;;;;14.93;7.40;;;;;;;15.80;97.79;101472.97;5056067;28;20441;-73
2023/05/21 00:45:55;;;;;;;15.10;6.63;;;;;;;15.81;97.62;101472.66;5056063;28;20466;-72
2023/05/21 00:48:23;;;;;;;15.00;7.40;;;;;;;15.84;97.65;101472.03;5055837;28;20450;-73
2023/05/21 00:50:50;;;;;;;12.93;7.13;;;;;;;15.83;97.58;101470.41;5055972;28;20839;-73
2023/05/21 00:53:18;;;;;;;14.73;8.20;;;;;;;15.83;97.46;101469.63;5055910;28;20560;-73
2023/05/21 00:55:45;;;;;;;25.10;8.20;;;;;;;15.79;97.66;101469.44;5056338;28;20541;-72
2023/05/21 00:58:12;;;;;;;14.83;8.17;;;;;;;15.81;97.73;101466.41;5055433;28;20442;-72
2023/05/21 01:00:39;;;;;;;15.30;8.37;;;;;;;15.78;96.31;101467.03;5055671;28;20457;-72
2023/05/21 01:03:06;;;;;;;14.07;7.67;;;;;;;15.72;95.37;101463.63;5055614;28;20560;-72
2023/05/21 01:05:34;;;;;;;15.50;8.10;;;;;;;15.69;95.09;101464.25;5055630;28;20445;-72
2023/05/21 01:08:01;;;;;;;14.13;7.33;;;;;;;15.64;94.91;101451.53;5054760;28;20545;-72
2023/05/21 01:10:29;;;;;;;12.60;6.60;;;;;;;15.64;95.07;101461.66;5054397;28;20834;-72
2023/05/21 01:12:57;;;;;;;14.00;7.27;;;;;;;15.63;96.17;101460.03;5054094;28;20438;-72
2023/05/21 01:15:25;;;;;;;15.07;6.83;;;;;;;15.64;96.83;101461.66;5054301;28;20533;-72
2023/05/21 01:17:52;;;;;;;14.10;7.20;;;;;;;15.63;97.26;101454.56;5054326;28;20465;-72
2023/05/21 01:20:19;;;;;;;14.87;7.57;;;;;;;15.66;97.70;101455.88;5054207;28;20462;-72
2023/05/21 01:22:53;;;;;;;14.47;7.87;;;;;;;15.63;97.61;101454.56;5053859;28;20564;-72
2023/05/21 01:25:20;;;;;;;13.67;7.80;;;;;;;15.62;97.94;101450.19;5054264;28;20431;-72
2023/05/21 01:27:46;;;;;;;13.77;7.07;;;;;;;15.60;97.99;101446.97;5054156;28;20485;-72
2023/05/21 01:30:14;;;;;;;15.63;7.17;;;;;;;15.57;98.24;101458.53;5054069;28;20462;-71
2023/05/21 01:32:52;;;;;;;15.27;8.20;;;;;;;15.54;98.50;101456.44;5054078;28;20781;-72
2023/05/21 01:35:22;;;;;;;17.20;7.47;;;;;;;15.51;98.63;101454.31;5054069;28;20433;-72
2023/05/21 01:37:55;;;;;;;15.27;7.23;;;;;;;15.46;99.15;101451.72;5054277;28;20437;-73
2023/05/21 01:40:29;;;;;;;12.53;7.60;;;;;;;15.42;99.41;101448.81;5053655;28;20462;-70
2023/05/21 01:42:57;;;;;;;18.67;7.43;;;;;;;15.38;99.32;101443.16;5053865;28;20557;-71
2023/05/21 01:45:25;;;;;;;16.90;8.30;;;;;;;15.35;99.78;101442.97;5053868;28;20447;-71
2023/05/21 01:47:54;;;;;;;17.40;7.53;;;;;;;15.34;100.00;101438.66;5054106;28;20453;-70
2023/05/21 01:50:23;;;;;;;14.87;7.37;;;;;;;15.31;99.91;101437.31;5053725;28;20502;-74
2023/05/21 01:52:51;;;;;;;21.10;8.83;;;;;;;15.31;100.00;101437.31;5052775;28;20542;-72
2023/05/21 01:55:23;;;;;;;14.70;7.37;;;;;;;15.28;100.00;101437.97;5053752;28;20540;-72
2023/05/21 01:57:50;;;;;;;18.40;9.40;;;;;;;15.28;100.00;101437.97;5053709;28;20970;-72
2023/05/21 02:00:17;;;;;;;20.73;9.30;;;;;;;15.26;100.00;101444.84;5053636;28;20516;-72
2023/05/21 02:02:43;;;;;;;14.80;7.53;;;;;;;15.23;100.00;101435.38;5053602;28;20486;-72
2023/05/21 02:05:10;;;;;;;17.70;8.10;;;;;;;15.25;100.00;101438.59;5053247;28;20869;-73
2023/05/21 02:07:37;;;;;;;17.00;7.97;;;;;;;15.24;100.00;101433.44;5014472;28;1130030;-72
2023/05/21 02:10:04;;;;;;;14.00;8.20;;;;;;;15.22;100.00;101433.75;5054431;28;20272;-73
2023/05/21 02:12:32;;;;;;;13.23;7.67;;;;;;;15.18;100.00;101427.28;5054389;28;20442;-73
2023/05/21 02:14:59;;;;;;;15.90;8.90;;;;;;;15.14;100.00;101426.34;5054351;28;20816;-72
2023/05/21 02:17:30;;;;;;;17.30;8.87;;;;;;;15.11;100.00;101424.22;5054323;28;20882;-72
2023/05/21 02:19:56;;;;;;;14.70;7.87;;;;;;;15.13;100.00;101425.50;5054193;28;20467;-72
2023/05/21 02:22:23;;;;;;;15.43;8.47;;;;;;;15.09;100.00;101421.78;5054103;28;20525;-71
2023/05/21 02:24:49;;;;;;;17.43;7.70;;;;;;;15.08;100.00;101416.63;5054127;28;20441;-72
2023/05/21 02:27:16;;;;;;;14.77;8.20;;;;;;;15.05;100.00;101414.53;5053858;28;20442;-72
2023/05/21 02:29:44;;;;;;;18.87;9.33;;;;;;;15.04;100.00;101413.72;5053720;28;20815;-72
2023/05/21 02:32:11;;;;;;;15.53;8.67;;;;;;;15.01;100.00;101421.75;5053970;28;20470;-72
2023/05/21 02:34:41;;;;;;;19.47;9.90;;;;;;;15.02;100.00;101413.25;5053994;28;20477;-72
2023/05/21 02:37:08;;;;;;;17.50;8.73;;;;;;;14.98;100.00;101406.78;5053947;28;20449;-73
2023/05/21 02:39:35;;;;;;;18.77;9.73;;;;;;;14.97;100.00;101409.84;5053801;28;20466;-72
2023/05/21 02:42:01;;;;;;;16.70;8.80;;;;;;;14.98;100.00;101414.97;5053770;28;20569;-72
2023/05/21 02:44:28;;;;;;;15.97;9.13;;;;;;;14.96;100.00;101413.66;5053538;28;20931;-72
2023/05/21 02:46:56;;;;;;;16.53;8.80;;;;;;;14.95;100.00;101410.13;5053757;28;20537;-72
2023/05/21 02:49:22;;;;;;;18.40;8.63;;;;;;;14.96;100.00;101408.19;5053642;28;20672;-72
2023/05/21 02:51:49;;;;;;;18.40;9.67;;;;;;;14.91;100.00;101402.88;5053581;28;20441;-72
2023/05/21 02:54:16;;;;;;;22.23;9.43;;;;;;;14.87;100.00;101408.97;5053618;28;20533;-72
2023/05/21 02:56:42;;;;;;;20.50;10.20;;;;;;;14.85;100.00;101407.66;5053211;28;20456;-72
2023/05/21 02:59:09;;;;;;;17.60;9.30;;;;;;;14.80;100.00;101403.13;5053447;28;20554;-72
2023/05/21 03:01:35;;;;;;;17.30;8.07;;;;;;;14.81;100.00;101401.19;5053038;28;20442;-72
2023/05/21 03:04:04;;;;;;;20.47;10.50;;;;;;;14.80;100.00;101403.13;5053167;28;20521;-72
2023/05/21 03:06:31;;;;;;;16.70;8.67;;;;;;;14.81;100.00;101403.94;5052943;28;20480;-72
2023/05/21 03:08:57;;;;;;;22.47;10.17;;;;;;;14.81;100.00;101410.19;5053283;28;20442;-72
2023/05/21 03:11:24;;;;;;;19.40;9.60;;;;;;;14.81;100.00;101401.19;5052962;28;20446;-72
2023/05/21 03:13:51;;;;;;;16.53;9.20;;;;;;;14.79;100.00;101406.97;5053511;28;20477;-72
2023/05/21 03:16:18;;;;;;;18.90;9.70;;;;;;;14.79;100.00;101398.78;5053164;28;20448;-73
2023/05/21 03:18:45;;;;;;;18.33;9.17;;;;;;;14.77;100.00;101401.00;5052827;28;20818;-72
2023/05/21 03:21:14;;;;;;;19.40;10.47;;;;;;;14.79;100.00;101398.78;5052884;28;20529;-72
2023/05/21 03:23:41;;;;;;;21.30;10.93;;;;;;;14.80;100.00;101402.31;5053092;28;20576;-72
2023/05/21 03:26:08;;;;;;;18.83;9.10;;;;;;;14.83;100.00;101405.25;5053374;28;20442;-72
2023/05/21 03:28:34;;;;;;;18.67;9.97;;;;;;;14.84;100.00;101404.13;5052767;28;20529;-72
2023/05/21 03:31:01;;;;;;;16.97;9.10;;;;;;;14.85;100.00;101413.91;5053041;28;20505;-72
2023/05/21 03:33:28;;;;;;;20.23;10.30;;;;;;;14.85;100.00;101405.72;5053058;28;20466;-72
2023/05/21 03:35:55;;;;;;;19.73;10.30;;;;;;;14.88;100.00;101402.38;5052971;28;20473;-72
2023/05/21 03:38:23;;;;;;;24.50;10.00;;;;;;;14.88;100.00;101402.38;5052664;28;20935;-72
2023/05/21 03:40:49;;;;;;;17.47;9.63;;;;;;;14.92;100.00;101412.66;5052611;28;20469;-71
2023/05/21 03:43:16;;;;;;;20.70;10.50;;;;;;;14.95;100.00;101420.22;5053067;28;20500;-72
2023/05/21 03:45:42;;;;;;;18.20;10.13;;;;;;;14.96;100.00;101408.19;5052657;28;21019;-72
2023/05/21 03:48:09;;;;;;;18.07;9.80;;;;;;;14.99;100.00;101407.59;5052953;28;20556;-72
2023/05/21 03:50:36;;;;;;;20.03;10.40;;;;;;;14.99;100.00;101411.13;5052839;28;20472;-72
2023/05/21 03:53:03;;;;;;;19.10;9.87;;;;;;;14.99;100.00;101413.84;5062392;22;20498;-83
2023/05/21 03:55:31;;;;;;;18.33;9.30;;;;;;;15.04;100.00;101410.19;5053932;28;20470;-82
2023/05/21 03:57:57;;;;;;;19.30;10.97;;;;;;;15.05;100.00;101407.16;5053559;28;20446;-82
2023/05/21 04:00:24;;;;;;;21.37;12.13;;;;;;;15.09;100.00;101423.69;5083130;22;20497;-69
2023/05/21 04:02:50;;;;;;;21.60;10.17;;;;;;;15.10;100.00;101414.41;5073195;28;20493;-69
2023/05/21 04:05:17;;;;;;;19.53;9.90;;;;;;;15.12;100.00;101423.88;5073280;28;20448;-68
2023/05/21 04:07:45;;;;;;;18.73;9.83;;;;;;;15.13;100.00;101417.31;5073042;28;20481;-69
2023/05/21 04:10:12;;;;;;;20.03;9.23;;;;;;;15.17;100.00;101422.97;5072781;28;20930;-68
2023/05/21 04:12:40;;;;;;;17.57;9.43;;;;;;;15.20;100.00;101427.81;5072843;28;20536;-68
2023/05/21 04:15:07;;;;;;;26.03;11.73;;;;;;;15.23;100.00;101421.72;5073271;28;20445;-67
2023/05/21 04:17:34;;;;;;;21.00;10.10;;;;;;;15.25;100.00;101415.94;5076630;28;20472;-68
2023/05/21 04:20:01;;;;;;;19.80;10.97;;;;;;;15.27;100.00;101422.72;5076355;28;20447;-68
2023/05/21 04:22:27;;;;;;;22.20;12.40;;;;;;;15.32;100.00;101416.31;5076431;28;20485;-68
2023/05/21 04:24:54;;;;;;;21.40;11.77;;;;;;;15.41;100.00;101427.28;5076582;28;20540;-68
2023/05/21 04:27:22;;;;;;;20.83;10.60;;;;;;;15.46;100.00;101418.97;5076282;28;20449;-69
2023/05/21 04:29:50;;;;;;;22.23;12.40;;;;;;;15.52;100.00;101426.69;5076411;28;20486;-67
2023/05/21 04:32:17;;;;;;;24.80;12.03;;;;;;;15.60;100.00;101423.22;5075975;28;20455;-69
2023/05/21 04:34:44;;;;;;;19.60;10.90;;;;;;;15.67;100.00;101421.97;5076290;28;20441;-68
2023/05/21 04:37:10;;;;;;;24.63;12.30;;;;;;;15.74;100.00;101425.06;5076188;28;20447;-68
2023/05/21 04:39:37;;;;;;;22.47;10.30;;;;;;;15.80;100.00;101430.06;5076437;28;20441;-68
2023/05/21 04:42:04;;;;;;;28.33;11.30;;;;;;;15.88;100.00;101429.28;5076053;28;20447;-69
2023/05/21 04:44:30;;;;;;;20.83;10.93;;;;;;;15.97;100.00;101425.78;5076030;28;20535;-67
2023/05/21 04:46:59;;;;;;;22.50;11.80;;;;;;;16.04;100.00;101417.94;5075952;28;20438;-68
2023/05/21 04:49:25;;;;;;;16.27;10.67;;;;;;;16.11;100.00;101432.75;5075997;28;20477;-68
2023/05/21 04:51:52;;;;;;;21.37;11.90;;;;;;;16.24;100.00;101424.72;5075972;28;20437;-69
2023/05/21 04:54:18;;;;;;;18.27;11.10;;;;;;;16.32;100.00;101424.75;5075509;28;20548;-70
2023/05/21 04:56:46;;;;;;;22.07;11.43;;;;;;;16.42;100.00;101440.03;5075876;28;20469;-68
2023/05/21 04:59:12;;;;;;;20.03;10.50;;;;;;;16.52;100.00;101430.75;5075643;28;20506;-68
2023/05/21 05:01:40;;;;;;;21.93;11.60;;;;;;;16.59;100.00;101431.84;5075379;28;20484;-68
2023/05/21 05:04:08;;;;;;;20.83;11.40;;;;;;;16.70;100.00;101429.63;5075670;28;20489;-68
2023/05/21 05:06:35;;;;;;;19.77;10.97;;;;;;;16.79;100.00;101433.19;5075354;28;20943;-68
2023/05/21 05:09:01;;;;;;;21.10;10.93;;;;;;;16.85;100.00;101428.34;5075732;28;20469;-68
2023/05/21 05:11:28;;;;;;;20.43;10.70;;;;;;;16.94;100.00;101431.09;5075507;28;20961;-68
2023/05/21 05:13:54;;;;;;;22.20;10.37;;;;;;;16.99;98.95;101425.44;5075532;28;20459;-69
2023/05/21 05:16:24;;;;;;;16.30;9.00;;;;;;;17.07;98.80;101425.44;5075175;28;20866;-69
2023/05/21 05:18:51;;;;;;;18.60;10.10;;;;;;;17.17;99.02;101432.50;5075168;28;20939;-68
2023/05/21 05:21:22;;;;;;;19.77;9.83;;;;;;;17.25;99.17;101431.69;5075382;28;20858;-68
2023/05/21 05:23:48;;;;;;;21.33;11.30;;;;;;;17.29;98.83;101431.84;5075240;28;20524;-68
2023/05/21 05:26:15;;;;;;;19.70;11.07;;;;;;;17.33;99.06;101432.81;5075017;28;20476;-67
2023/05/21 05:28:42;;;;;;;18.90;10.60;;;;;;;17.44;98.58;101430.50;5075553;28;20463;-68
2023/05/21 05:31:08;;;;;;;18.90;11.40;;;;;;;17.52;98.34;101441.44;5075292;28;20812;-68
2023/05/21 05:33:35;;;;;;;20.07;10.87;;;;;;;17.60;97.88;101431.59;5075140;28;20819;-69
2023/05/21 05:36:01;;;;;;;23.07;11.37;;;;;;;17.70;97.69;101425.75;5074826;28;20817;-69
2023/05/21 05:38:30;;;;;;;20.53;9.90;;;;;;;17.79;96.92;101428.50;5075187;28;20549;-69
2023/05/21 05:40:56;;;;;;;29.63;11.03;;;;;;;17.87;96.47;101433.13;5075088;28;20476;-68
2023/05/21 05:43:25;;;;;;;19.13;10.17;;;;;;;17.97;96.53;101432.75;5074537;28;20487;-70
2023/05/21 05:45:51;;;;;;;18.93;10.67;;;;;;;18.08;96.29;101434.00;5074611;28;20448;-69
2023/05/21 05:48:18;;;;;;;17.20;10.40;;;;;;;18.17;96.05;101439.44;5074923;28;20551;-68
2023/05/21 05:50:45;;;;;;;20.43;10.47;;;;;;;18.25;95.47;101430.34;5074876;28;20448;-68
2023/05/21 05:53:12;;;;;;;20.17;9.37;;;;;;;18.33;95.00;101428.72;5074939;28;20468;-69
2023/05/21 05:55:40;;;;;;;14.00;8.50;;;;;;;18.44;94.88;101431.84;5074811;28;20445;-69
2023/05/21 05:58:07;;;;;;;18.40;10.37;;;;;;;18.55;93.90;101433.03;5074861;28;20473;-71
2023/05/21 06:00:33;;;;;;;15.37;9.10;;;;;;;18.63;93.65;101430.22;5074523;28;20536;-65
2023/05/21 06:03:00;;;;;;;20.17;8.70;;;;;;;18.72;92.69;101432.94;5074086;28;21053;-65
2023/05/21 06:05:26;;;;;;;15.83;9.23;;;;;;;18.78;91.62;101431.63;5074546;28;20452;-66
2023/05/21 06:07:53;;;;;;;17.17;9.30;;;;;;;18.80;90.78;101436.75;5074503;28;20889;-64
2023/05/21 06:10:20;;;;;;;15.97;8.87;;;;;;;18.87;89.69;101434.28;5074422;28;20437;-66
2023/05/21 06:12:48;;;;;;;16.90;9.87;;;;;;;18.90;90.28;101436.34;5074353;28;20461;-65
2023/05/21 06:15:15;;;;;;;18.40;9.10;;;;;;;18.98;90.21;101429.19;5074372;28;20448;-65
2023/05/21 06:17:42;;;;;;;17.83;9.77;;;;;;;19.06;90.15;101433.78;5074259;28;20524;-66
2023/05/21 06:20:10;;;;;;;16.87;8.50;;;;;;;19.10;90.10;101432.78;5074242;28;20437;-65
2023/05/21 06:22:36;;;;;;;17.03;8.20;;;;;;;19.16;90.03;101425.13;5074121;28;20484;-66
2023/05/21 06:25:03;;;;;;;18.70;10.50;;;;;;;19.22;89.11;101423.78;5073688;28;20481;-65
2023/05/21 06:27:30;;;;;;;18.03;8.63;;;;;;;19.27;88.91;101422.75;5074100;28;20448;-65
2023/05/21 06:29:58;;;;;;;18.20;9.43;;;;;;;19.32;88.58;101423.34;5074246;28;20449;-65
2023/05/21 06:32:25;;;;;;;18.73;10.30;;;;;;;19.33;87.97;101424.13;5073610;28;20461;-65
2023/05/21 06:34:52;;;;;;;17.80;9.30;;;;;;;19.39;88.01;101423.59;5074277;28;20446;-65
2023/05/21 06:37:19;;;;;;;18.87;9.67;;;;;;;19.47;87.36;101423.81;5073953;28;20448;-66
2023/05/21 06:39:46;;;;;;;14.27;8.20;;;;;;;19.48;87.08;101423.50;5073448;28;20441;-65
2023/05/21 06:42:13;;;;;;;15.47;9.37;;;;;;;19.53;87.72;101417.78;5073730;28;20449;-66
2023/05/21 06:44:39;;;;;;;23.90;9.27;;;;;;;19.52;87.95;101418.94;5073425;28;20477;-68
2023/05/21 06:47:07;;;;;;;17.70;9.33;;;;;;;19.55;86.56;101423.72;5073852;28;20502;-69
2023/05/21 06:49:34;;;;;;;14.30;8.50;;;;;;;19.58;86.23;101422.25;5073970;28;20449;-69
2023/05/21 06:52:01;;;;;;;20.10;8.83;;;;;;;19.63;86.39;101422.06;5073643;28;20510;-69
2023/05/21 06:54:27;;;;;;;18.33;9.70;;;;;;;19.67;86.15;101425.72;5073706;28;20441;-69
2023/05/21 06:56:54;;;;;;;17.07;9.70;;;;;;;19.75;86.79;101424.81;5073666;28;20446;-69
2023/05/21 06:59:21;;;;;;;14.70;8.77;;;;;;;19.79;85.75;101419.41;5073584;28;20481;-69
2023/05/21 07:01:47;;;;;;;18.30;10.07;;;;;;;19.83;85.63;101420.34;5073462;28;20552;-70
2023/05/21 07:04:15;;;;;;;13.10;8.13;;;;;;;19.88;85.50;101411.88;5073455;28;20491;-69
2023/05/21 07:06:42;;;;;;;18.83;9.20;;;;;;;19.93;85.74;101419.09;5073122;28;21037;-70
2023/05/21 07:09:09;;;;;;;12.47;7.03;;;;;;;19.99;85.44;101418.50;5073258;28;20441;-69
2023/05/21 07:11:35;;;;;;;13.77;8.20;;;;;;;20.08;85.92;101418.41;5073482;28;20452;-69
2023/05/21 07:14:02;;;;;;;14.73;7.43;;;;;;;20.14;86.33;101425.25;5073024;28;20464;-70
2023/05/21 07:16:29;;;;;;;13.60;8.37;;;;;;;20.24;84.88;101419.31;5073409;28;20878;-69
2023/05/21 07:18:56;;;;;;;16.70;9.20;;;;;;;20.32;84.16;101420.31;5073103;28;20979;-70
2023/05/21 07:21:24;;;;;;;12.87;7.80;;;;;;;20.40;82.91;101422.94;5073345;28;20483;-69
2023/05/21 07:23:50;;;;;;;13.67;7.87;;;;;;;20.53;82.06;101425.69;5073171;28;20493;-69
2023/05/21 07:26:17;;;;;;;14.63;8.27;;;;;;;20.64;81.42;101415.81;5072913;28;20532;-69
2023/05/21 07:28:44;;;;;;;12.90;6.30;;;;;;;20.73;82.09;101415.66;5073308;28;20442;-69
2023/05/21 07:31:11;;;;;;;15.70;8.33;;;;;;;20.80;80.64;101413.09;5073274;28;20445;-69
2023/05/21 07:33:38;;;;;;;20.77;7.63;;;;;;;20.82;79.55;101417.09;5073199;28;20457;-69
2023/05/21 07:36:05;;;;;;;14.47;7.03;;;;;;;20.87;79.50;101416.06;5072905;28;20433;-68
2023/05/21 07:38:34;;;;;;;12.37;7.00;;;;;;;20.94;79.34;101415.44;5072816;28;20480;-69
2023/05/21 07:41:00;;;;;;;15.27;8.60;;;;;;;20.99;79.73;101421.53;5073390;28;20445;-69
2023/05/21 07:43:27;;;;;;;19.07;7.60;;;;;;;21.05;78.97;101414.59;5072973;28;20576;-70
2023/05/21 07:45:53;;;;;;;16.10;8.10;;;;;;;21.07;77.92;101403.22;5073246;28;20495;-69
2023/05/21 07:48:20;;;;;;;17.00;7.97;;;;;;;21.16;77.24;101406.59;5073101;28;20441;-70
2023/05/21 07:50:48;;;;;;;12.53;6.87;;;;;;;21.23;76.34;101408.75;5074636;28;20483;-69
2023/05/21 07:53:15;;;;;;;15.20;6.40;;;;;;;21.33;76.50;101408.25;5077139;28;20913;-69
2023/05/21 07:55:46;;;;;;;21.33;8.77;;;;;;;21.40;77.55;101411.22;5077142;28;20469;-69
2023/05/21 07:58:13;;;;;;;12.47;7.13;;;;;;;21.53;75.78;101409.97;5076794;28;20476;-69
2023/05/21 08:00:42;;;;;;;12.27;7.03;;;;;;;21.63;74.77;101401.16;5076860;28;20514;-68
2023/05/21 08:03:10;;;;;;;15.83;7.70;;;;;;;21.71;75.03;101396.63;5076926;28;20461;-69
2023/05/21 08:05:37;;;;;;;10.23;5.50;;;;;;;21.84;73.42;101398.13;5076700;28;20489;-69
2023/05/21 08:08:04;;;;;;;14.73;7.30;;;;;;;21.95;73.39;101400.34;5076615;28;20445;-70
2023/05/21 08:10:31;;;;;;;17.30;7.20;;;;;;;22.07;72.65;101400.22;5076495;28;20472;-70
2023/05/21 08:12:59;;;;;;;14.93;5.90;;;;;;;22.12;72.91;101405.50;5076701;28;20544;-68
2023/05/21 08:15:25;;;;;;;12.97;6.53;;;;;;;22.14;71.82;101401.22;5076414;28;20476;-70
2023/05/21 08:17:52;;;;;;;8.77;5.40;;;;;;;22.24;71.56;101399.88;5076246;28;20437;-69
2023/05/21 08:20:19;;;;;;;14.10;5.87;;;;;;;22.39;71.44;101409.25;5076266;28;20930;-69
2023/05/21 08:22:45;;;;;;;14.07;7.00;;;;;;;22.49;71.28;101399.59;5076160;28;20461;-68
2023/05/21 08:25:12;;;;;;;17.13;7.43;;;;;;;22.65;70.84;101397.56;5076457;28;20579;-71
2023/05/21 08:27:39;;;;;;;15.63;6.27;;;;;;;22.83;70.97;101395.97;5076464;28;20860;-68
2023/05/21 08:30:10;;;;;;;15.43;6.97;;;;;;;22.99;70.37;101406.97;5076344;28;20450;-68
2023/05/21 08:32:36;;;;;;;11.90;6.13;;;;;;;23.08;67.20;101409.50;5076263;28;20484;-71
2023/05/21 08:35:03;;;;;;;12.77;6.10;;;;;;;23.24;66.51;101403.84;5076350;28;20440;-69
2023/05/21 08:37:31;;;;;;;11.07;5.13;;;;;;;23.35;66.88;101400.13;5076240;28;20476;-68
2023/05/21 08:39:57;;;;;;;10.13;5.10;;;;;;;23.37;65.32;101408.03;5076204;28;20449;-70
2023/05/21 08:42:33;;;;;;;11.13;5.67;;;;;;;23.41;65.44;101406.13;5075953;28;20553;-68
2023/05/21 08:45:00;;;;;;;9.13;4.90;;;;;;;23.41;64.98;101404.16;5076102;28;20471;-69
2023/05/21 08:47:34;;;;;;;10.43;5.77;;;;;;;23.51;64.81;101407.50;5076146;28;20441;-70
2023/05/21 08:50:03;;;;;;;9.93;5.10;;;;;;;23.62;65.60;101405.72;5079936;28;20457;-70
2023/05/21 08:52:30;;;;;;;10.17;5.37;;;;;;;23.63;63.99;101397.03;5081899;28;20473;-72
2023/05/21 08:54:57;;;;;;;10.77;5.40;;;;;;;23.70;63.82;101396.41;5080728;28;20469;-69
2023/05/21 08:57:26;;;;;;;9.90;5.27;;;;;;;23.72;62.96;101405.09;5075902;28;20473;-72
2023/05/21 08:59:53;;;;;;;9.60;5.70;;;;;;;23.65;62.18;101405.00;5075570;28;20938;-68
2023/05/21 09:02:19;;;;;;;10.43;5.53;;;;;;;23.69;62.41;101405.88;5075142;28;21041;-68
2023/05/21 09:04:49;;;;;;;11.23;5.13;;;;;;;23.72;62.73;101407.88;5075763;28;20477;-67
2023/05/21 09:07:16;;;;;;;8.03;4.30;;;;;;;23.75;63.95;101395.28;5075900;28;20914;-68
2023/05/21 09:09:53;;;;;;;9.70;4.50;;;;;;;23.85;63.02;101402.94;5075743;28;20467;-68
2023/05/21 09:12:19;;;;;;;10.17;5.27;;;;;;;23.90;63.34;101397.88;5075719;28;20461;-69
2023/05/21 09:14:47;;;;;;;9.70;5.33;;;;;;;24.01;62.41;101397.25;5075301;28;20880;-69
2023/05/21 09:17:14;;;;;;;9.43;4.93;;;;;;;24.09;60.39;101398.97;5075621;28;20445;-68
2023/05/21 09:20:09;;;;;;;12.37;5.97;;;;;;;24.10;60.84;101400.56;5075577;28;20445;-68
2023/05/21 09:22:36;;;;;;;14.50;4.60;;;;;;;24.17;61.77;101395.94;5075424;28;20465;-69
2023/05/21 09:25:06;;;;;;;11.63;5.47;;;;;;;24.25;61.75;101396.00;5075381;28;20585;-68
2023/05/21 09:27:33;;;;;;;10.20;5.00;;;;;;;24.44;61.89;101386.78;5075392;28;20507;-69
2023/05/21 09:30:00;;;;;;;10.00;4.70;;;;;;;24.57;61.01;101394.50;5075342;28;20449;-69
2023/05/21 09:32:26;;;;;;;9.50;5.03;;;;;;;24.70;60.32;101389.50;5074900;28;21042;-68
2023/05/21 09:34:53;;;;;;;11.70;4.73;;;;;;;24.76;60.42;101398.28;5074903;28;20494;-68
2023/05/21 09:37:21;;;;;;;9.47;4.90;;;;;;;24.77;58.04;101388.78;5075195;28;20476;-69
2023/05/21 09:39:48;;;;;;;11.90;5.23;;;;;;;24.71;57.43;101385.56;5074812;28;20484;-69
2023/05/21 09:42:15;;;;;;;10.97;5.83;;;;;;;24.78;57.34;101388.41;5074972;28;20449;-68
2023/05/21 09:44:43;;;;;;;10.93;4.60;;;;;;;24.81;58.46;101390.41;5074696;28;20579;-68
2023/05/21 09:47:09;;;;;;;11.57;5.37;;;;;;;24.84;58.37;101383.34;5074986;28;20445;-67
2023/05/21 09:49:37;;;;;;;9.10;4.47;;;;;;;24.81;58.13;101387.66;5074636;28;20963;-69
2023/05/21 09:52:04;;;;;;;11.50;4.80;;;;;;;24.89;57.72;101377.44;5074833;28;20469;-69
2023/05/21 09:54:42;;;;;;;11.63;5.30;;;;;;;25.09;58.40;101378.84;5052859;22;21034;-77
2023/05/21 09:57:08;;;;;;;11.73;5.93;;;;;;;25.23;56.37;101378.19;5035685;28;20463;-77
2023/05/21 09:59:38;;;;;;;13.07;5.00;;;;;;;25.23;55.40;101377.41;5035376;28;20533;-76
2023/05/21 10:02:16;;;;;;;9.00;4.80;;;;;;;25.16;54.37;101375.38;5035348;28;20956;-77
2023/05/21 10:04:44;;;;;;;13.47;4.83;;;;;;;25.26;55.46;101373.88;5035240;28;20558;-77
2023/05/21 10:07:11;;;;;;;8.07;4.07;;;;;;;25.38;57.13;101374.38;5035116;28;20503;-77
2023/05/21 10:09:38;;;;;;;12.20;4.73;;;;;;;25.47;55.81;101373.28;5038218;28;20485;-78
2023/05/21 10:12:09;;;;;;;8.10;3.60;;;;;;;25.60;55.52;101364.25;5042804;28;20822;-78
2023/05/21 10:14:36;;;;;;;9.47;3.97;;;;;;;25.79;53.88;101362.44;5039758;28;20440;-78
2023/05/21 10:17:06;;;;;;;8.47;4.73;;;;;;;26.02;53.75;101362.19;5042954;28;20538;-77
2023/05/21 10:19:35;;;;;;;10.10;4.60;;;;;;;26.16;53.51;101365.03;5047637;28;20432;-78
2023/05/21 10:22:03;;;;;;;8.83;4.30;;;;;;;26.30;51.91;101362.34;5039262;28;20522;-77
2023/05/21 10:24:31;;;;;;;14.20;4.37;;;;;;;26.39;52.00;101359.22;5050303;28;20487;-78
2023/05/21 10:27:03;;;;;;;10.60;4.87;;;;;;;26.53;51.64;101352.94;5038200;28;20679;-79
2023/05/21 10:29:34;;;;;;;7.83;3.77;;;;;;;26.69;51.23;101361.72;5034651;28;20475;-77
2023/05/21 10:39:18;;;;;;;;;;;;;;;;;;;;;
2023/05/21 10:42:42;;;;;;;;;;;;;;;;;;;;;
2023/05/21 11:07:42;;;;;;;8.80;3.67;;;;;;;27.74;48.61;101335.59;4775210;29;20233;-76
2023/05/21 11:10:35;;;;;;;7.33;3.73;;;;;;;28.16;48.70;101340.28;4897054;29;20524;-77
2023/05/21 11:13:44;;;;;;;7.80;3.83;;;;;;;28.39;47.91;101340.59;4899030;29;20480;-78
2023/05/21 11:22:23;;;;;;;11.50;3.90;;;;;;;28.96;46.51;101325.56;4844523;29;20462;-77
2023/05/21 11:28:27;;;;;;;;;;;;;;;;;;;;;
2023/05/21 11:31:36;;;;;;;;;;;;;;;;;;;;;
2023/05/21 11:56:47;;;;;;;8.40;3.57;;;;;;;30.70;39.25;101312.94;5152385;27;20518;-72
2023/05/21 11:59:15;;;;;;;7.47;3.53;;;;;;;31.02;40.00;101321.66;5152186;27;20442;-72
2023/05/21 12:01:43;;;;;;;7.87;3.33;;;;;;;31.16;39.26;101329.03;5151921;27;20922;-72
2023/05/21 12:04:10;;;;;;;9.53;3.37;;;;;;;31.27;38.44;101320.47;5165275;27;20517;-72
2023/05/21 12:06:37;;;;;;;7.13;3.10;;;;;;;31.37;39.43;101316.72;5173113;27;20858;-72
2023/05/21 12:09:04;;;;;;;8.07;3.50;;;;;;;31.39;38.20;101317.88;5172959;27;20441;-72
2023/05/21 12:11:30;;;;;;;10.60;4.40;;;;;;;31.49;38.79;101318.13;5172648;27;21018;-72
2023/05/21 12:13:58;;;;;;;6.30;2.73;;;;;;;31.42;38.72;101312.63;5172995;27;20457;-72
2023/05/21 12:16:25;;;;;;;7.40;3.50;;;;;;;30.99;38.63;101316.09;5172483;27;20473;-71
2023/05/21 12:18:52;;;;;;;10.60;3.03;;;;;;;30.82;39.22;101313.19;5172761;27;20445;-72
2023/05/21 12:21:18;;;;;;;10.40;3.20;;;;;;;30.83;38.72;101317.56;5172866;27;20444;-71
2023/05/21 12:23:45;;;;;;;6.83;3.40;;;;;;;31.14;38.65;101318.25;5172707;27;20468;-72
2023/05/21 12:26:12;;;;;;;7.80;3.43;;;;;;;31.13;37.41;101313.09;5172653;27;20468;-72